sensor_id;sensor_type;location;lat;lon;timestamp;P1;durP1;ratioP1;P2;durP2;ratioP2
7879;SDS011;3985;49.366;2.738;2023-04-15T00:00:56;2.50;;;1.25;;
7879;SDS011;3985;49.366;2.738;2023-04-15T00:03:23;2.75;;;2.75;;
7879;SDS011;3985;49.366;2.738;2023-04-15T00:05:51;3.50;;;2.25;;
7879;SDS011;3985;49.366;2.738;2023-04-15T00:08:19;1.75;;;1.75;;
7879;SDS011;3985;49.366;2.738;2023-04-15T00:10:47;4.00;;;2.50;;
7879;SDS011;3985;49.366;2.738;2023-04-15T00:13:15;2.00;;;2.00;;
7879;SDS011;3985;49.366;2.738;2023-04-15T00:15:42;2.75;;;1.50;;
7879;SDS011;3985;49.366;2.738;2023-04-15T00:18:09;4.00;;;2.00;;
7879;SDS011;3985;49.366;2.738;2023-04-15T00:20:36;3.00;;;3.00;;
7879;SDS011;3985;49.366;2.738;2023-04-15T00:23:04;3.50;;;3.50;;
7879;SDS011;3985;49.366;2.738;2023-04-15T00:25:33;5.00;;;4.00;;
7879;SDS011;3985;49.366;2.738;2023-04-15T00:28:00;3.25;;;3.25;;
7879;SDS011;3985;49.366;2.738;2023-04-15T00:30:27;4.00;;;4.00;;
7879;SDS011;3985;49.366;2.738;2023-04-15T00:32:55;3.75;;;3.00;;
7879;SDS011;3985;49.366;2.738;2023-04-15T00:35:22;2.00;;;2.00;;
7879;SDS011;3985;49.366;2.738;2023-04-15T00:37:49;2.00;;;2.00;;
7879;SDS011;3985;49.366;2.738;2023-04-15T00:40:17;2.75;;;2.50;;
7879;SDS011;3985;49.366;2.738;2023-04-15T00:42:50;1.50;;;1.50;;
7879;SDS011;3985;49.366;2.738;2023-04-15T00:45:17;3.00;;;3.00;;
7879;SDS011;3985;49.366;2.738;2023-04-15T00:47:44;3.00;;;2.00;;
7879;SDS011;3985;49.366;2.738;2023-04-15T00:50:12;1.50;;;1.50;;
7879;SDS011;3985;49.366;2.738;2023-04-15T00:52:39;1.00;;;1.00;;
7879;SDS011;3985;49.366;2.738;2023-04-15T00:55:07;2.00;;;2.00;;
7879;SDS011;3985;49.366;2.738;2023-04-15T00:57:35;1.00;;;1.00;;
7879;SDS011;3985;49.366;2.738;2023-04-15T01:00:05;1.00;;;1.00;;
7879;SDS011;3985;49.366;2.738;2023-04-15T01:02:33;1.50;;;1.50;;
7879;SDS011;3985;49.366;2.738;2023-04-15T01:05:01;1.25;;;1.25;;
7879;SDS011;3985;49.366;2.738;2023-04-15T01:07:29;0.00;;;0.00;;
7879;SDS011;3985;49.366;2.738;2023-04-15T01:09:56;2.00;;;2.00;;
7879;SDS011;3985;49.366;2.738;2023-04-15T01:12:25;2.00;;;2.00;;
7879;SDS011;3985;49.366;2.738;2023-04-15T01:14:52;2.25;;;2.25;;
7879;SDS011;3985;49.366;2.738;2023-04-15T01:17:22;2.00;;;2.00;;
7879;SDS011;3985;49.366;2.738;2023-04-15T01:19:50;2.75;;;2.50;;
7879;SDS011;3985;49.366;2.738;2023-04-15T01:22:17;2.00;;;2.00;;
7879;SDS011;3985;49.366;2.738;2023-04-15T01:24:46;3.00;;;3.00;;
7879;SDS011;3985;49.366;2.738;2023-04-15T01:27:19;2.75;;;2.75;;
7879;SDS011;3985;49.366;2.738;2023-04-15T01:29:47;3.00;;;3.00;;
7879;SDS011;3985;49.366;2.738;2023-04-15T01:32:14;2.00;;;2.00;;
7879;SDS011;3985;49.366;2.738;2023-04-15T01:34:41;3.00;;;3.00;;
7879;SDS011;3985;49.366;2.738;2023-04-15T01:37:08;3.00;;;3.00;;
7879;SDS011;3985;49.366;2.738;2023-04-15T01:39:36;3.00;;;3.00;;
7879;SDS011;3985;49.366;2.738;2023-04-15T01:42:03;3.00;;;3.00;;
7879;SDS011;3985;49.366;2.738;2023-04-15T01:44:32;3.00;;;3.00;;
7879;SDS011;3985;49.366;2.738;2023-04-15T01:46:59;4.75;;;3.50;;
7879;SDS011;3985;49.366;2.738;2023-04-15T01:49:26;4.75;;;4.00;;
7879;SDS011;3985;49.366;2.738;2023-04-15T01:51:57;2.75;;;2.75;;
7879;SDS011;3985;49.366;2.738;2023-04-15T01:54:24;3.00;;;3.00;;
7879;SDS011;3985;49.366;2.738;2023-04-15T01:56:52;5.00;;;3.25;;
7879;SDS011;3985;49.366;2.738;2023-04-15T01:59:20;4.75;;;3.00;;
7879;SDS011;3985;49.366;2.738;2023-04-15T02:01:49;5.75;;;4.00;;
7879;SDS011;3985;49.366;2.738;2023-04-15T02:04:16;4.25;;;4.00;;
7879;SDS011;3985;49.366;2.738;2023-04-15T02:06:44;3.00;;;3.00;;
7879;SDS011;3985;49.366;2.738;2023-04-15T02:09:11;3.25;;;3.25;;
7879;SDS011;3985;49.366;2.738;2023-04-15T02:11:38;4.00;;;4.00;;
7879;SDS011;3985;49.366;2.738;2023-04-15T02:14:05;4.25;;;3.75;;
7879;SDS011;3985;49.366;2.738;2023-04-15T02:16:33;6.00;;;4.00;;
7879;SDS011;3985;49.366;2.738;2023-04-15T02:19:02;3.50;;;3.50;;
7879;SDS011;3985;49.366;2.738;2023-04-15T02:21:29;4.25;;;4.25;;
7879;SDS011;3985;49.366;2.738;2023-04-15T02:23:56;3.25;;;3.25;;
7879;SDS011;3985;49.366;2.738;2023-04-15T02:26:23;4.00;;;4.00;;
7879;SDS011;3985;49.366;2.738;2023-04-15T02:28:50;3.25;;;3.25;;
7879;SDS011;3985;49.366;2.738;2023-04-15T02:31:18;2.00;;;2.00;;
7879;SDS011;3985;49.366;2.738;2023-04-15T02:33:45;3.00;;;3.00;;
7879;SDS011;3985;49.366;2.738;2023-04-15T02:36:14;5.00;;;3.50;;
7879;SDS011;3985;49.366;2.738;2023-04-15T02:38:41;3.00;;;3.00;;
7879;SDS011;3985;49.366;2.738;2023-04-15T02:41:08;2.00;;;2.00;;
7879;SDS011;3985;49.366;2.738;2023-04-15T02:43:36;3.00;;;3.00;;
7879;SDS011;3985;49.366;2.738;2023-04-15T02:46:04;3.50;;;2.00;;
7879;SDS011;3985;49.366;2.738;2023-04-15T02:48:31;3.00;;;3.00;;
7879;SDS011;3985;49.366;2.738;2023-04-15T02:51:11;2.00;;;2.00;;
7879;SDS011;3985;49.366;2.738;2023-04-15T02:53:41;3.00;;;3.00;;
7879;SDS011;3985;49.366;2.738;2023-04-15T02:56:08;3.00;;;3.00;;
7879;SDS011;3985;49.366;2.738;2023-04-15T02:58:36;2.75;;;2.75;;
7879;SDS011;3985;49.366;2.738;2023-04-15T03:01:04;2.00;;;2.00;;
7879;SDS011;3985;49.366;2.738;2023-04-15T03:03:31;2.00;;;2.00;;
7879;SDS011;3985;49.366;2.738;2023-04-15T03:05:58;2.00;;;2.00;;
7879;SDS011;3985;49.366;2.738;2023-04-15T03:08:27;3.00;;;2.00;;
7879;SDS011;3985;49.366;2.738;2023-04-15T03:10:54;1.75;;;1.75;;
7879;SDS011;3985;49.366;2.738;2023-04-15T03:13:24;4.75;;;4.75;;
7879;SDS011;3985;49.366;2.738;2023-04-15T03:15:52;13.50;;;13.25;;
7879;SDS011;3985;49.366;2.738;2023-04-15T03:18:19;9.25;;;9.25;;
7879;SDS011;3985;49.366;2.738;2023-04-15T03:20:47;4.00;;;4.00;;
7879;SDS011;3985;49.366;2.738;2023-04-15T03:23:14;2.00;;;2.00;;
7879;SDS011;3985;49.366;2.738;2023-04-15T03:25:43;2.00;;;2.00;;
7879;SDS011;3985;49.366;2.738;2023-04-15T03:28:10;2.25;;;2.00;;
7879;SDS011;3985;49.366;2.738;2023-04-15T03:30:37;3.00;;;3.00;;
7879;SDS011;3985;49.366;2.738;2023-04-15T03:33:05;4.50;;;2.75;;
7879;SDS011;3985;49.366;2.738;2023-04-15T03:35:32;2.50;;;2.50;;
7879;SDS011;3985;49.366;2.738;2023-04-15T03:37:59;2.00;;;2.00;;
7879;SDS011;3985;49.366;2.738;2023-04-15T03:40:27;5.00;;;5.00;;
7879;SDS011;3985;49.366;2.738;2023-04-15T03:42:55;8.00;;;6.00;;
7879;SDS011;3985;49.366;2.738;2023-04-15T03:45:23;3.50;;;3.50;;
7879;SDS011;3985;49.366;2.738;2023-04-15T03:47:50;6.00;;;6.00;;
7879;SDS011;3985;49.366;2.738;2023-04-15T03:50:17;4.75;;;4.75;;
7879;SDS011;3985;49.366;2.738;2023-04-15T03:52:44;3.25;;;2.00;;
7879;SDS011;3985;49.366;2.738;2023-04-15T03:55:12;5.00;;;5.00;;
7879;SDS011;3985;49.366;2.738;2023-04-15T03:57:39;9.25;;;9.25;;
7879;SDS011;3985;49.366;2.738;2023-04-15T04:00:08;2.75;;;2.75;;
7879;SDS011;3985;49.366;2.738;2023-04-15T04:02:36;6.00;;;5.00;;
7879;SDS011;3985;49.366;2.738;2023-04-15T04:05:04;2.00;;;2.00;;
7879;SDS011;3985;49.366;2.738;2023-04-15T04:07:31;6.25;;;5.00;;
7879;SDS011;3985;49.366;2.738;2023-04-15T04:09:58;10.00;;;10.00;;
7879;SDS011;3985;49.366;2.738;2023-04-15T04:12:25;7.00;;;7.00;;
7879;SDS011;3985;49.366;2.738;2023-04-15T04:14:53;19.00;;;17.75;;
7879;SDS011;3985;49.366;2.738;2023-04-15T04:17:21;17.00;;;16.00;;
7879;SDS011;3985;49.366;2.738;2023-04-15T04:19:49;7.00;;;5.50;;
7879;SDS011;3985;49.366;2.738;2023-04-15T04:22:16;4.00;;;4.00;;
7879;SDS011;3985;49.366;2.738;2023-04-15T04:24:43;4.00;;;4.00;;
7879;SDS011;3985;49.366;2.738;2023-04-15T04:27:10;6.00;;;6.00;;
7879;SDS011;3985;49.366;2.738;2023-04-15T04:29:37;10.75;;;10.75;;
7879;SDS011;3985;49.366;2.738;2023-04-15T04:32:05;8.00;;;8.00;;
7879;SDS011;3985;49.366;2.738;2023-04-15T04:34:34;7.75;;;7.75;;
7879;SDS011;3985;49.366;2.738;2023-04-15T04:37:01;9.00;;;6.50;;
7879;SDS011;3985;49.366;2.738;2023-04-15T04:39:28;16.25;;;11.75;;
7879;SDS011;3985;49.366;2.738;2023-04-15T04:41:55;15.50;;;12.75;;
7879;SDS011;3985;49.366;2.738;2023-04-15T04:44:25;15.50;;;15.50;;
7879;SDS011;3985;49.366;2.738;2023-04-15T04:46:55;12.25;;;12.25;;
7879;SDS011;3985;49.366;2.738;2023-04-15T04:49:22;5.50;;;5.50;;
7879;SDS011;3985;49.366;2.738;2023-04-15T04:51:51;4.00;;;4.00;;
7879;SDS011;3985;49.366;2.738;2023-04-15T04:54:18;6.00;;;4.25;;
7879;SDS011;3985;49.366;2.738;2023-04-15T04:56:45;5.75;;;5.75;;
7879;SDS011;3985;49.366;2.738;2023-04-15T04:59:12;9.50;;;5.00;;
7879;SDS011;3985;49.366;2.738;2023-04-15T05:01:39;9.75;;;9.75;;
7879;SDS011;3985;49.366;2.738;2023-04-15T05:04:07;10.00;;;10.00;;
7879;SDS011;3985;49.366;2.738;2023-04-15T05:06:36;18.00;;;16.00;;
7879;SDS011;3985;49.366;2.738;2023-04-15T05:09:08;13.00;;;12.00;;
7879;SDS011;3985;49.366;2.738;2023-04-15T05:11:35;8.00;;;8.00;;
7879;SDS011;3985;49.366;2.738;2023-04-15T05:14:02;4.00;;;4.00;;
7879;SDS011;3985;49.366;2.738;2023-04-15T05:16:29;12.00;;;10.00;;
7879;SDS011;3985;49.366;2.738;2023-04-15T05:18:56;11.75;;;11.75;;
7879;SDS011;3985;49.366;2.738;2023-04-15T05:21:24;14.00;;;12.50;;
7879;SDS011;3985;49.366;2.738;2023-04-15T05:23:51;9.75;;;7.25;;
7879;SDS011;3985;49.366;2.738;2023-04-15T05:26:20;8.25;;;8.25;;
7879;SDS011;3985;49.366;2.738;2023-04-15T05:28:48;9.00;;;9.00;;
7879;SDS011;3985;49.366;2.738;2023-04-15T05:31:15;10.75;;;10.75;;
7879;SDS011;3985;49.366;2.738;2023-04-15T05:33:42;5.75;;;5.75;;
7879;SDS011;3985;49.366;2.738;2023-04-15T05:36:09;4.50;;;4.50;;
7879;SDS011;3985;49.366;2.738;2023-04-15T05:38:37;6.75;;;6.75;;
7879;SDS011;3985;49.366;2.738;2023-04-15T05:41:04;6.25;;;4.75;;
7879;SDS011;3985;49.366;2.738;2023-04-15T05:43:33;6.25;;;6.00;;
7879;SDS011;3985;49.366;2.738;2023-04-15T05:46:00;8.00;;;5.00;;
7879;SDS011;3985;49.366;2.738;2023-04-15T05:48:27;9.50;;;7.50;;
7879;SDS011;3985;49.366;2.738;2023-04-15T05:50:54;9.75;;;9.75;;
7879;SDS011;3985;49.366;2.738;2023-04-15T05:53:21;5.00;;;5.00;;
7879;SDS011;3985;49.366;2.738;2023-04-15T05:55:48;5.50;;;5.50;;
7879;SDS011;3985;49.366;2.738;2023-04-15T05:58:16;6.00;;;6.00;;
7879;SDS011;3985;49.366;2.738;2023-04-15T06:00:44;5.00;;;5.00;;
7879;SDS011;3985;49.366;2.738;2023-04-15T06:03:11;5.00;;;5.00;;
7879;SDS011;3985;49.366;2.738;2023-04-15T06:05:39;11.00;;;11.00;;
7879;SDS011;3985;49.366;2.738;2023-04-15T06:08:06;5.00;;;5.00;;
7879;SDS011;3985;49.366;2.738;2023-04-15T06:10:33;8.50;;;8.50;;
7879;SDS011;3985;49.366;2.738;2023-04-15T06:13:01;6.00;;;6.00;;
7879;SDS011;3985;49.366;2.738;2023-04-15T06:15:28;7.25;;;6.00;;
7879;SDS011;3985;49.366;2.738;2023-04-15T06:17:57;7.50;;;7.50;;
7879;SDS011;3985;49.366;2.738;2023-04-15T06:20:24;8.00;;;8.00;;
7879;SDS011;3985;49.366;2.738;2023-04-15T06:22:51;5.25;;;5.25;;
7879;SDS011;3985;49.366;2.738;2023-04-15T06:25:19;4.25;;;4.25;;
7879;SDS011;3985;49.366;2.738;2023-04-15T06:27:46;5.00;;;5.00;;
7879;SDS011;3985;49.366;2.738;2023-04-15T06:30:13;4.00;;;4.00;;
7879;SDS011;3985;49.366;2.738;2023-04-15T06:32:41;5.00;;;5.00;;
7879;SDS011;3985;49.366;2.738;2023-04-15T06:35:09;3.00;;;3.00;;
7879;SDS011;3985;49.366;2.738;2023-04-15T06:37:36;4.00;;;3.00;;
7879;SDS011;3985;49.366;2.738;2023-04-15T06:40:04;8.75;;;8.75;;
7879;SDS011;3985;49.366;2.738;2023-04-15T06:42:32;5.25;;;5.25;;
7879;SDS011;3985;49.366;2.738;2023-04-15T06:45:00;4.00;;;4.00;;
7879;SDS011;3985;49.366;2.738;2023-04-15T06:47:28;8.75;;;7.00;;
7879;SDS011;3985;49.366;2.738;2023-04-15T06:49:56;13.75;;;10.25;;
7879;SDS011;3985;49.366;2.738;2023-04-15T06:52:26;5.25;;;5.25;;
7879;SDS011;3985;49.366;2.738;2023-04-15T06:54:53;10.25;;;9.25;;
7879;SDS011;3985;49.366;2.738;2023-04-15T06:57:21;12.00;;;10.00;;
7879;SDS011;3985;49.366;2.738;2023-04-15T06:59:48;9.75;;;9.75;;
7879;SDS011;3985;49.366;2.738;2023-04-15T07:02:16;8.00;;;3.00;;
7879;SDS011;3985;49.366;2.738;2023-04-15T07:04:44;10.50;;;10.50;;
7879;SDS011;3985;49.366;2.738;2023-04-15T07:07:11;13.50;;;13.50;;
7879;SDS011;3985;49.366;2.738;2023-04-15T07:09:43;5.00;;;5.00;;
7879;SDS011;3985;49.366;2.738;2023-04-15T07:12:11;4.00;;;4.00;;
7879;SDS011;3985;49.366;2.738;2023-04-15T07:14:38;10.00;;;10.00;;
7879;SDS011;3985;49.366;2.738;2023-04-15T07:17:07;8.50;;;8.50;;
7879;SDS011;3985;49.366;2.738;2023-04-15T07:19:35;10.00;;;10.00;;
7879;SDS011;3985;49.366;2.738;2023-04-15T07:22:02;11.75;;;10.25;;
7879;SDS011;3985;49.366;2.738;2023-04-15T07:24:34;10.50;;;10.50;;
7879;SDS011;3985;49.366;2.738;2023-04-15T07:27:03;12.25;;;12.25;;
7879;SDS011;3985;49.366;2.738;2023-04-15T07:29:30;20.75;;;20.75;;
7879;SDS011;3985;49.366;2.738;2023-04-15T07:31:57;22.00;;;19.75;;
7879;SDS011;3985;49.366;2.738;2023-04-15T07:34:24;10.75;;;10.75;;
7879;SDS011;3985;49.366;2.738;2023-04-15T07:36:52;17.50;;;15.50;;
7879;SDS011;3985;49.366;2.738;2023-04-15T07:39:20;20.75;;;17.75;;
7879;SDS011;3985;49.366;2.738;2023-04-15T07:41:47;25.00;;;24.00;;
7879;SDS011;3985;49.366;2.738;2023-04-15T07:44:16;20.00;;;16.75;;
7879;SDS011;3985;49.366;2.738;2023-04-15T07:46:44;12.25;;;12.25;;
7879;SDS011;3985;49.366;2.738;2023-04-15T07:49:11;14.75;;;12.75;;
7879;SDS011;3985;49.366;2.738;2023-04-15T07:51:38;10.00;;;10.00;;
7879;SDS011;3985;49.366;2.738;2023-04-15T07:54:05;9.00;;;9.00;;
7879;SDS011;3985;49.366;2.738;2023-04-15T07:56:32;22.50;;;19.50;;
7879;SDS011;3985;49.366;2.738;2023-04-15T07:59:00;9.75;;;9.75;;
7879;SDS011;3985;49.366;2.738;2023-04-15T08:01:30;12.50;;;12.50;;
7879;SDS011;3985;49.366;2.738;2023-04-15T08:03:58;12.00;;;12.00;;
7879;SDS011;3985;49.366;2.738;2023-04-15T08:06:25;8.00;;;8.00;;
7879;SDS011;3985;49.366;2.738;2023-04-15T08:08:53;7.50;;;7.50;;
7879;SDS011;3985;49.366;2.738;2023-04-15T08:11:20;7.75;;;7.75;;
7879;SDS011;3985;49.366;2.738;2023-04-15T08:13:48;9.50;;;9.50;;
7879;SDS011;3985;49.366;2.738;2023-04-15T08:16:16;9.75;;;9.75;;
7879;SDS011;3985;49.366;2.738;2023-04-15T08:18:46;11.25;;;11.25;;
7879;SDS011;3985;49.366;2.738;2023-04-15T08:21:15;13.00;;;13.00;;
7879;SDS011;3985;49.366;2.738;2023-04-15T08:23:42;10.00;;;10.00;;
7879;SDS011;3985;49.366;2.738;2023-04-15T08:26:11;9.50;;;9.50;;
7879;SDS011;3985;49.366;2.738;2023-04-15T08:28:40;11.75;;;11.75;;
7879;SDS011;3985;49.366;2.738;2023-04-15T08:31:08;10.75;;;10.75;;
7879;SDS011;3985;49.366;2.738;2023-04-15T08:33:35;17.50;;;13.25;;
7879;SDS011;3985;49.366;2.738;2023-04-15T08:36:04;12.75;;;12.75;;
7879;SDS011;3985;49.366;2.738;2023-04-15T08:38:31;15.00;;;15.00;;
7879;SDS011;3985;49.366;2.738;2023-04-15T08:40:59;10.75;;;8.00;;
7879;SDS011;3985;49.366;2.738;2023-04-15T08:43:32;14.00;;;14.00;;
7879;SDS011;3985;49.366;2.738;2023-04-15T08:46:00;14.25;;;12.75;;
7879;SDS011;3985;49.366;2.738;2023-04-15T08:48:28;15.00;;;14.00;;
7879;SDS011;3985;49.366;2.738;2023-04-15T08:50:58;13.25;;;13.25;;
7879;SDS011;3985;49.366;2.738;2023-04-15T08:53:27;15.25;;;15.25;;
7879;SDS011;3985;49.366;2.738;2023-04-15T08:55:55;14.00;;;14.00;;
7879;SDS011;3985;49.366;2.738;2023-04-15T08:58:23;19.00;;;16.75;;
7879;SDS011;3985;49.366;2.738;2023-04-15T09:00:51;14.75;;;14.75;;
7879;SDS011;3985;49.366;2.738;2023-04-15T09:03:18;16.50;;;14.00;;
7879;SDS011;3985;49.366;2.738;2023-04-15T09:05:47;16.00;;;13.25;;
7879;SDS011;3985;49.366;2.738;2023-04-15T09:08:16;17.25;;;15.75;;
7879;SDS011;3985;49.366;2.738;2023-04-15T09:10:44;14.75;;;14.75;;
7879;SDS011;3985;49.366;2.738;2023-04-15T09:13:12;14.00;;;14.00;;
7879;SDS011;3985;49.366;2.738;2023-04-15T09:15:39;14.00;;;14.00;;
7879;SDS011;3985;49.366;2.738;2023-04-15T09:18:07;17.50;;;17.50;;
7879;SDS011;3985;49.366;2.738;2023-04-15T09:20:38;15.25;;;15.25;;
7879;SDS011;3985;49.366;2.738;2023-04-15T09:23:13;16.25;;;16.25;;
7879;SDS011;3985;49.366;2.738;2023-04-15T09:25:41;31.75;;;27.00;;
7879;SDS011;3985;49.366;2.738;2023-04-15T09:28:10;21.00;;;21.00;;
7879;SDS011;3985;49.366;2.738;2023-04-15T09:30:37;15.50;;;15.50;;
7879;SDS011;3985;49.366;2.738;2023-04-15T09:33:04;15.00;;;14.25;;
7879;SDS011;3985;49.366;2.738;2023-04-15T09:35:35;17.00;;;14.00;;
7879;SDS011;3985;49.366;2.738;2023-04-15T09:38:02;17.00;;;15.00;;
7879;SDS011;3985;49.366;2.738;2023-04-15T09:40:31;12.75;;;12.75;;
7879;SDS011;3985;49.366;2.738;2023-04-15T09:43:00;21.50;;;21.00;;
7879;SDS011;3985;49.366;2.738;2023-04-15T09:45:29;16.50;;;16.50;;
7879;SDS011;3985;49.366;2.738;2023-04-15T09:47:57;12.75;;;10.75;;
7879;SDS011;3985;49.366;2.738;2023-04-15T09:50:26;21.50;;;20.25;;
7879;SDS011;3985;49.366;2.738;2023-04-15T09:52:54;11.75;;;11.75;;
7879;SDS011;3985;49.366;2.738;2023-04-15T09:55:22;11.00;;;11.00;;
7879;SDS011;3985;49.366;2.738;2023-04-15T09:57:49;11.00;;;11.00;;
7879;SDS011;3985;49.366;2.738;2023-04-15T10:00:16;13.00;;;11.25;;
7879;SDS011;3985;49.366;2.738;2023-04-15T10:02:45;11.00;;;11.00;;
7879;SDS011;3985;49.366;2.738;2023-04-15T10:05:14;11.25;;;7.75;;
7879;SDS011;3985;49.366;2.738;2023-04-15T10:07:42;8.00;;;8.00;;
7879;SDS011;3985;49.366;2.738;2023-04-15T10:10:10;11.25;;;10.00;;
7879;SDS011;3985;49.366;2.738;2023-04-15T10:12:37;12.75;;;10.75;;
7879;SDS011;3985;49.366;2.738;2023-04-15T10:15:12;11.75;;;11.00;;
7879;SDS011;3985;49.366;2.738;2023-04-15T10:17:42;15.50;;;13.75;;
7879;SDS011;3985;49.366;2.738;2023-04-15T10:20:11;15.67;;;12.67;;
7879;SDS011;3985;49.366;2.738;2023-04-15T10:22:39;8.00;;;5.67;;
7879;SDS011;3985;49.366;2.738;2023-04-15T10:25:08;14.00;;;12.33;;
7879;SDS011;3985;49.366;2.738;2023-04-15T10:27:36;6.33;;;6.33;;
7879;SDS011;3985;49.366;2.738;2023-04-15T10:30:05;13.67;;;13.67;;
7879;SDS011;3985;49.366;2.738;2023-04-15T10:32:33;9.67;;;9.33;;
7879;SDS011;3985;49.366;2.738;2023-04-15T10:35:02;9.33;;;9.33;;
7879;SDS011;3985;49.366;2.738;2023-04-15T10:37:32;4.25;;;4.00;;
7879;SDS011;3985;49.366;2.738;2023-04-15T10:40:04;8.00;;;8.00;;
7879;SDS011;3985;49.366;2.738;2023-04-15T10:42:51;9.33;;;9.33;;
7879;SDS011;3985;49.366;2.738;2023-04-15T10:45:19;6.00;;;6.00;;
7879;SDS011;3985;49.366;2.738;2023-04-15T10:47:50;7.33;;;7.33;;
7879;SDS011;3985;49.366;2.738;2023-04-15T10:50:20;13.00;;;10.67;;
7879;SDS011;3985;49.366;2.738;2023-04-15T10:52:49;11.00;;;6.67;;
7879;SDS011;3985;49.366;2.738;2023-04-15T10:55:23;13.33;;;13.33;;
7879;SDS011;3985;49.366;2.738;2023-04-15T10:57:51;8.00;;;8.00;;
7879;SDS011;3985;49.366;2.738;2023-04-15T11:00:21;8.33;;;8.33;;
7879;SDS011;3985;49.366;2.738;2023-04-15T11:02:51;12.67;;;12.00;;
7879;SDS011;3985;49.366;2.738;2023-04-15T11:05:21;10.67;;;10.00;;
7879;SDS011;3985;49.366;2.738;2023-04-15T11:08:11;9.33;;;9.33;;
7879;SDS011;3985;49.366;2.738;2023-04-15T11:13:22;10.00;;;10.00;;
7879;SDS011;3985;49.366;2.738;2023-04-15T11:15:54;11.00;;;8.00;;
7879;SDS011;3985;49.366;2.738;2023-04-15T11:18:26;13.67;;;13.67;;
7879;SDS011;3985;49.366;2.738;2023-04-15T11:20:58;19.00;;;19.00;;
7879;SDS011;3985;49.366;2.738;2023-04-15T11:23:29;12.33;;;11.00;;
7879;SDS011;3985;49.366;2.738;2023-04-15T11:25:58;16.00;;;14.00;;
7879;SDS011;3985;49.366;2.738;2023-04-15T11:28:27;17.00;;;17.00;;
7879;SDS011;3985;49.366;2.738;2023-04-15T11:30:55;17.00;;;17.00;;
7879;SDS011;3985;49.366;2.738;2023-04-15T11:33:24;8.00;;;8.00;;
7879;SDS011;3985;49.366;2.738;2023-04-15T11:35:51;12.67;;;10.33;;
7879;SDS011;3985;49.366;2.738;2023-04-15T11:38:19;13.67;;;13.67;;
7879;SDS011;3985;49.366;2.738;2023-04-15T11:40:49;25.50;;;23.75;;
7879;SDS011;3985;49.366;2.738;2023-04-15T11:43:17;9.00;;;9.00;;
7879;SDS011;3985;49.366;2.738;2023-04-15T11:45:49;23.25;;;23.25;;
7879;SDS011;3985;49.366;2.738;2023-04-15T11:48:18;12.67;;;12.67;;
7879;SDS011;3985;49.366;2.738;2023-04-15T11:50:45;12.00;;;12.00;;
7879;SDS011;3985;49.366;2.738;2023-04-15T11:53:17;9.67;;;9.67;;
7879;SDS011;3985;49.366;2.738;2023-04-15T11:55:45;13.00;;;12.00;;
7879;SDS011;3985;49.366;2.738;2023-04-15T11:58:15;16.75;;;15.50;;
7879;SDS011;3985;49.366;2.738;2023-04-15T12:00:46;11.00;;;11.00;;
7879;SDS011;3985;49.366;2.738;2023-04-15T12:03:18;13.00;;;10.67;;
7879;SDS011;3985;49.366;2.738;2023-04-15T12:06:08;10.00;;;10.00;;
7879;SDS011;3985;49.366;2.738;2023-04-15T12:09:00;13.33;;;13.33;;
7879;SDS011;3985;49.366;2.738;2023-04-15T12:11:37;13.00;;;12.00;;
7879;SDS011;3985;49.366;2.738;2023-04-15T12:14:08;15.00;;;15.00;;
7879;SDS011;3985;49.366;2.738;2023-04-15T12:16:37;15.00;;;14.67;;
7879;SDS011;3985;49.366;2.738;2023-04-15T12:19:08;9.67;;;7.33;;
7879;SDS011;3985;49.366;2.738;2023-04-15T12:21:37;8.00;;;8.00;;
7879;SDS011;3985;49.366;2.738;2023-04-15T12:24:06;10.67;;;10.67;;
7879;SDS011;3985;49.366;2.738;2023-04-15T12:26:35;14.00;;;14.00;;
7879;SDS011;3985;49.366;2.738;2023-04-15T12:29:04;8.00;;;8.00;;
7879;SDS011;3985;49.366;2.738;2023-04-15T12:31:34;14.33;;;13.00;;
7879;SDS011;3985;49.366;2.738;2023-04-15T12:34:02;9.50;;;7.50;;
7879;SDS011;3985;49.366;2.738;2023-04-15T12:36:33;7.50;;;7.50;;
7879;SDS011;3985;49.366;2.738;2023-04-15T12:39:01;10.50;;;8.00;;
7879;SDS011;3985;49.366;2.738;2023-04-15T12:41:29;12.25;;;10.00;;
7879;SDS011;3985;49.366;2.738;2023-04-15T12:43:56;7.00;;;7.00;;
7879;SDS011;3985;49.366;2.738;2023-04-15T12:46:25;9.00;;;7.50;;
7879;SDS011;3985;49.366;2.738;2023-04-15T12:48:53;7.50;;;7.50;;
7879;SDS011;3985;49.366;2.738;2023-04-15T12:51:20;7.75;;;4.50;;
7879;SDS011;3985;49.366;2.738;2023-04-15T12:53:47;6.00;;;6.00;;
7879;SDS011;3985;49.366;2.738;2023-04-15T12:56:16;9.00;;;9.00;;
7879;SDS011;3985;49.366;2.738;2023-04-15T12:58:43;8.50;;;7.50;;
7879;SDS011;3985;49.366;2.738;2023-04-15T13:01:11;5.50;;;5.50;;
7879;SDS011;3985;49.366;2.738;2023-04-15T13:03:39;6.25;;;6.25;;
7879;SDS011;3985;49.366;2.738;2023-04-15T13:06:06;5.00;;;5.00;;
7879;SDS011;3985;49.366;2.738;2023-04-15T13:08:33;7.25;;;5.75;;
7879;SDS011;3985;49.366;2.738;2023-04-15T13:11:02;4.75;;;4.75;;
7879;SDS011;3985;49.366;2.738;2023-04-15T13:13:29;7.25;;;5.50;;
7879;SDS011;3985;49.366;2.738;2023-04-15T13:15:57;5.00;;;5.00;;
7879;SDS011;3985;49.366;2.738;2023-04-15T13:18:24;5.00;;;4.00;;
7879;SDS011;3985;49.366;2.738;2023-04-15T13:20:53;7.25;;;7.25;;
7879;SDS011;3985;49.366;2.738;2023-04-15T13:23:21;7.00;;;5.00;;
7879;SDS011;3985;49.366;2.738;2023-04-15T13:25:48;7.50;;;7.50;;
7879;SDS011;3985;49.366;2.738;2023-04-15T13:28:16;5.25;;;5.25;;
7879;SDS011;3985;49.366;2.738;2023-04-15T13:30:43;5.75;;;5.75;;
7879;SDS011;3985;49.366;2.738;2023-04-15T13:33:12;7.75;;;6.25;;
7879;SDS011;3985;49.366;2.738;2023-04-15T13:35:45;7.00;;;7.00;;
7879;SDS011;3985;49.366;2.738;2023-04-15T13:38:13;8.25;;;7.25;;
7879;SDS011;3985;49.366;2.738;2023-04-15T13:40:41;7.25;;;7.25;;
7879;SDS011;3985;49.366;2.738;2023-04-15T13:43:08;7.25;;;7.25;;
7879;SDS011;3985;49.366;2.738;2023-04-15T13:45:35;5.50;;;4.25;;
7879;SDS011;3985;49.366;2.738;2023-04-15T13:48:02;11.00;;;11.00;;
7879;SDS011;3985;49.366;2.738;2023-04-15T13:50:30;9.25;;;9.25;;
7879;SDS011;3985;49.366;2.738;2023-04-15T13:52:57;8.00;;;8.00;;
7879;SDS011;3985;49.366;2.738;2023-04-15T13:55:26;6.50;;;6.50;;
7879;SDS011;3985;49.366;2.738;2023-04-15T13:57:53;8.50;;;8.00;;
7879;SDS011;3985;49.366;2.738;2023-04-15T14:00:21;7.75;;;7.75;;
7879;SDS011;3985;49.366;2.738;2023-04-15T14:02:48;11.00;;;11.00;;
7879;SDS011;3985;49.366;2.738;2023-04-15T14:05:16;6.00;;;6.00;;
7879;SDS011;3985;49.366;2.738;2023-04-15T14:07:43;11.25;;;9.00;;
7879;SDS011;3985;49.366;2.738;2023-04-15T14:10:10;11.00;;;10.00;;
7879;SDS011;3985;49.366;2.738;2023-04-15T14:12:39;8.25;;;8.25;;
7879;SDS011;3985;49.366;2.738;2023-04-15T14:15:07;12.00;;;11.00;;
7879;SDS011;3985;49.366;2.738;2023-04-15T14:17:35;12.50;;;12.00;;
7879;SDS011;3985;49.366;2.738;2023-04-15T14:20:03;12.00;;;12.00;;
7879;SDS011;3985;49.366;2.738;2023-04-15T14:22:33;12.25;;;12.25;;
7879;SDS011;3985;49.366;2.738;2023-04-15T14:25:00;12.00;;;12.00;;
7879;SDS011;3985;49.366;2.738;2023-04-15T14:27:28;13.00;;;12.00;;
7879;SDS011;3985;49.366;2.738;2023-04-15T14:29:56;13.75;;;11.00;;
7879;SDS011;3985;49.366;2.738;2023-04-15T14:32:24;11.75;;;11.75;;
7879;SDS011;3985;49.366;2.738;2023-04-15T14:34:51;12.00;;;11.25;;
7879;SDS011;3985;49.366;2.738;2023-04-15T14:37:19;15.25;;;15.25;;
7879;SDS011;3985;49.366;2.738;2023-04-15T14:39:46;18.00;;;15.50;;
7879;SDS011;3985;49.366;2.738;2023-04-15T14:42:13;14.00;;;13.25;;
7879;SDS011;3985;49.366;2.738;2023-04-15T14:44:42;15.00;;;14.25;;
7879;SDS011;3985;49.366;2.738;2023-04-15T14:47:11;11.75;;;11.75;;
7879;SDS011;3985;49.366;2.738;2023-04-15T14:49:38;9.25;;;9.25;;
7879;SDS011;3985;49.366;2.738;2023-04-15T14:52:05;13.75;;;13.00;;
7879;SDS011;3985;49.366;2.738;2023-04-15T14:54:32;14.50;;;14.50;;
7879;SDS011;3985;49.366;2.738;2023-04-15T14:57:00;12.75;;;12.75;;
7879;SDS011;3985;49.366;2.738;2023-04-15T14:59:27;14.25;;;14.25;;
7879;SDS011;3985;49.366;2.738;2023-04-15T15:01:57;16.00;;;14.25;;
7879;SDS011;3985;49.366;2.738;2023-04-15T15:04:25;16.00;;;16.00;;
7879;SDS011;3985;49.366;2.738;2023-04-15T15:06:52;17.50;;;15.00;;
7879;SDS011;3985;49.366;2.738;2023-04-15T15:09:20;17.75;;;15.50;;
7879;SDS011;3985;49.366;2.738;2023-04-15T15:11:49;18.00;;;16.00;;
7879;SDS011;3985;49.366;2.738;2023-04-15T15:14:16;22.75;;;22.00;;